Stephen L. — WDE7070 — position and weather

sailwx.info

Track history (hours):
 
Tides and Currents Weather Stations Pressure Air Temp Water Temp Dewpoint Dewpoint Depression Visibility Wind Speed Wind Dir Waves Ship Positions

Stephen L.

Owner: TRIPLE S MARINE, LLC, MORGAN CITY, LA. More information available from US FCC via Universal Licensing System and Coast Guard Vessel Documentation Center.

Last reported at 2014-Dec-19 04:33 UTC. Time now 2014-Dec-21 04:45 UTC.
Position N 29°44' W 091°34'.

Length 20 m.

Type: Ship. MMSI: 367388580.

Date/timePositionNaut miles runAvg speedWind from/ knotsBaromVisibWave heightAir tempDewpointWater temp
2014-Dec-19 04:33N 29°44' W 091°34'7 7.5
2014-Dec-19 03:33N 29°40' W 091°26'7 7.1
2014-Dec-19 02:33N 29°39' W 091°18'5 4.8
2014-Dec-19 01:33N 29°41' W 091°13'0 0.2
2014-Dec-19 00:33N 29°40' W 091°14'2 2.4
2014-Dec-18 23:33N 29°41' W 091°11'4 4.5
2014-Dec-18 22:33N 29°38' W 091°07'1 1.5
2014-Dec-18 21:33N 29°40' W 091°06'1 0.8
2014-Dec-18 20:33N 29°40' W 091°06'0 0.0
2014-Dec-18 19:33N 29°40' W 091°06'0 0.0
2014-Dec-18 18:33N 29°40' W 091°06'0 0.0
2014-Dec-18 17:33N 29°40' W 091°06'0 0.0
2014-Dec-18 16:33N 29°40' W 091°06'0 0.0
2014-Dec-18 15:33N 29°40' W 091°06'0 0.0
2014-Dec-18 14:33N 29°40' W 091°06'0 0.0
2014-Dec-18 13:33N 29°40' W 091°06'0 0.0
2014-Dec-18 12:33N 29°40' W 091°06'0 0.0
2014-Dec-18 11:33N 29°40' W 091°06'0 0.0
2014-Dec-18 10:33N 29°40' W 091°06'0 0.0
2014-Dec-18 09:28N 29°40' W 091°06'0 0.0
2014-Dec-18 08:32N 29°40' W 091°06'0 0.0
2014-Dec-18 07:09N 29°40' W 091°06'0 0.0
2014-Dec-18 06:33N 29°40' W 091°06'0 0.0
2014-Dec-18 05:33N 29°40' W 091°06'0 0.0
2014-Dec-18 04:33N 29°40' W 091°06'0 0.0
2014-Dec-18 03:33N 29°40' W 091°06'0 0.0
2014-Dec-18 02:33N 29°40' W 091°06'0 0.0
2014-Dec-18 01:33N 29°40' W 091°06'0 0.0
2014-Dec-18 00:34N 29°40' W 091°06'0 0.0
2014-Dec-17 23:33N 29°40' W 091°06'0 0.0
2014-Dec-17 22:33N 29°40' W 091°06'0 0.0
2014-Dec-17 21:33N 29°40' W 091°06'0 0.0
2014-Dec-17 20:33N 29°40' W 091°06'0 0.0
2014-Dec-17 19:33N 29°40' W 091°06'0 0.0
2014-Dec-17 18:33N 29°40' W 091°06'0 0.0
2014-Dec-17 17:33N 29°40' W 091°06'0 0.0
2014-Dec-17 16:33N 29°40' W 091°06'0 0.0
2014-Dec-17 15:33N 29°40' W 091°06'0 0.0
2014-Dec-17 14:33N 29°40' W 091°06'0 0.0
2014-Dec-17 13:33N 29°40' W 091°06'4 4.5
2014-Dec-17 12:33N 29°37' W 091°02'8 7.7
2014-Dec-17 11:32N 29°33' W 090°55'  
2014-Dec-15 04:23N 29°24' W 090°44'9 3.8
2014-Dec-15 02:06N 29°33' W 090°42'5 2.7
2014-Dec-15 00:23N 29°32' W 090°48'9 4.5
2014-Dec-14 22:28N 29°34' W 090°57'4 4.4
2014-Dec-14 21:32N 29°37' W 091°00'2 2.5
2014-Dec-14 20:33N 29°38' W 091°03'2 1.5
2014-Dec-14 19:33N 29°39' W 091°02'4 3.6
2014-Dec-14 18:33N 29°40' W 091°06'0 0.1
2014-Dec-14 17:33N 29°40' W 091°06'1 0.9
2014-Dec-14 16:33N 29°39' W 091°06'3 3.5
2014-Dec-14 15:33N 29°41' W 091°09'2 1.7
2014-Dec-14 14:33N 29°40' W 091°08'2 1.7
2014-Dec-14 13:33N 29°40' W 091°06'0 0.0
2014-Dec-14 12:33N 29°40' W 091°06'0 0.0
2014-Dec-14 11:33N 29°40' W 091°06'0 0.0
2014-Dec-14 10:33N 29°40' W 091°06'0 0.0
2014-Dec-14 09:33N 29°40' W 091°06'0 0.0
2014-Dec-14 08:33N 29°40' W 091°06'0 0.0
2014-Dec-14 07:33N 29°40' W 091°06'0 0.0
2014-Dec-14 06:33N 29°40' W 091°06'0 0.0
2014-Dec-14 05:33N 29°40' W 091°06'0 0.0
2014-Dec-14 04:33N 29°40' W 091°06'0 0.0
2014-Dec-14 03:33N 29°40' W 091°06'0 0.4
2014-Dec-14 02:33N 29°40' W 091°06'2 1.9
2014-Dec-14 01:33N 29°40' W 091°08'2 1.6
2014-Dec-14 00:33N 29°39' W 091°07'6 5.2
2014-Dec-13 23:29N 29°37' W 091°01'50 4.0
2014-Dec-13 11:10N 29°46' W 090°05'3 5.2
2014-Dec-13 10:33N 29°49' W 090°04'4 4.3
2014-Dec-13 09:33N 29°52' W 090°00'3 2.8
2014-Dec-13 08:24N 29°55' W 089°58'1 0.7
2014-Dec-13 07:26N 29°55' W 089°58'0 0.1
2014-Dec-13 06:18N 29°55' W 089°57'0 0.0
2014-Dec-13 05:12N 29°55' W 089°57'31 2.0
2014-Dec-12 13:32N 30°03' W 090°33'14 6.8
2014-Dec-12 11:30N 29°59' W 090°48'  
Track history (hours):
 
Tides and Currents Weather Stations Pressure Air Temp Water Temp Dewpoint Dewpoint Depression Visibility Wind Speed Wind Dir Waves Ship Positions

Stephen L.

Owner: TRIPLE S MARINE, LLC, MORGAN CITY, LA. More information available from US FCC via Universal Licensing System and Coast Guard Vessel Documentation Center.

Last reported at 2014-Dec-19 04:33 UTC. Time now 2014-Dec-21 04:45 UTC.
Position N 29°44' W 091°34'.

Length 20 m.

Type: Ship. MMSI: 367388580.

Date/timePositionNaut miles runAvg speedWind from/ knotsBaromVisibWave heightAir tempDewpointWater temp
2014-Dec-19 04:33N 29°44' W 091°34'7 7.5
2014-Dec-19 03:33N 29°40' W 091°26'7 7.1
2014-Dec-19 02:33N 29°39' W 091°18'5 4.8
2014-Dec-19 01:33N 29°41' W 091°13'0 0.2
2014-Dec-19 00:33N 29°40' W 091°14'2 2.4
2014-Dec-18 23:33N 29°41' W 091°11'4 4.5
2014-Dec-18 22:33N 29°38' W 091°07'1 1.5
2014-Dec-18 21:33N 29°40' W 091°06'1 0.8
2014-Dec-18 20:33N 29°40' W 091°06'0 0.0
2014-Dec-18 19:33N 29°40' W 091°06'0 0.0
2014-Dec-18 18:33N 29°40' W 091°06'0 0.0
2014-Dec-18 17:33N 29°40' W 091°06'0 0.0
2014-Dec-18 16:33N 29°40' W 091°06'0 0.0
2014-Dec-18 15:33N 29°40' W 091°06'0 0.0
2014-Dec-18 14:33N 29°40' W 091°06'0 0.0
2014-Dec-18 13:33N 29°40' W 091°06'0 0.0
2014-Dec-18 12:33N 29°40' W 091°06'0 0.0
2014-Dec-18 11:33N 29°40' W 091°06'0 0.0
2014-Dec-18 10:33N 29°40' W 091°06'0 0.0
2014-Dec-18 09:28N 29°40' W 091°06'0 0.0
2014-Dec-18 08:32N 29°40' W 091°06'0 0.0
2014-Dec-18 07:09N 29°40' W 091°06'0 0.0
2014-Dec-18 06:33N 29°40' W 091°06'0 0.0
2014-Dec-18 05:33N 29°40' W 091°06'0 0.0
2014-Dec-18 04:33N 29°40' W 091°06'0 0.0
2014-Dec-18 03:33N 29°40' W 091°06'0 0.0
2014-Dec-18 02:33N 29°40' W 091°06'0 0.0
2014-Dec-18 01:33N 29°40' W 091°06'0 0.0
2014-Dec-18 00:34N 29°40' W 091°06'0 0.0
2014-Dec-17 23:33N 29°40' W 091°06'0 0.0
2014-Dec-17 22:33N 29°40' W 091°06'0 0.0
2014-Dec-17 21:33N 29°40' W 091°06'0 0.0
2014-Dec-17 20:33N 29°40' W 091°06'0 0.0
2014-Dec-17 19:33N 29°40' W 091°06'0 0.0
2014-Dec-17 18:33N 29°40' W 091°06'0 0.0
2014-Dec-17 17:33N 29°40' W 091°06'0 0.0
2014-Dec-17 16:33N 29°40' W 091°06'0 0.0
2014-Dec-17 15:33N 29°40' W 091°06'0 0.0
2014-Dec-17 14:33N 29°40' W 091°06'0 0.0
2014-Dec-17 13:33N 29°40' W 091°06'4 4.5
2014-Dec-17 12:33N 29°37' W 091°02'8 7.7
2014-Dec-17 11:32N 29°33' W 090°55'  
2014-Dec-15 04:23N 29°24' W 090°44'9 3.8
2014-Dec-15 02:06N 29°33' W 090°42'5 2.7
2014-Dec-15 00:23N 29°32' W 090°48'9 4.5
2014-Dec-14 22:28N 29°34' W 090°57'4 4.4
2014-Dec-14 21:32N 29°37' W 091°00'2 2.5
2014-Dec-14 20:33N 29°38' W 091°03'2 1.5
2014-Dec-14 19:33N 29°39' W 091°02'4 3.6
2014-Dec-14 18:33N 29°40' W 091°06'0 0.1
2014-Dec-14 17:33N 29°40' W 091°06'1 0.9
2014-Dec-14 16:33N 29°39' W 091°06'3 3.5
2014-Dec-14 15:33N 29°41' W 091°09'2 1.7
2014-Dec-14 14:33N 29°40' W 091°08'2 1.7
2014-Dec-14 13:33N 29°40' W 091°06'0 0.0
2014-Dec-14 12:33N 29°40' W 091°06'0 0.0
2014-Dec-14 11:33N 29°40' W 091°06'0 0.0
2014-Dec-14 10:33N 29°40' W 091°06'0 0.0
2014-Dec-14 09:33N 29°40' W 091°06'0 0.0
2014-Dec-14 08:33N 29°40' W 091°06'0 0.0
2014-Dec-14 07:33N 29°40' W 091°06'0 0.0
2014-Dec-14 06:33N 29°40' W 091°06'0 0.0
2014-Dec-14 05:33N 29°40' W 091°06'0 0.0
2014-Dec-14 04:33N 29°40' W 091°06'0 0.0
2014-Dec-14 03:33N 29°40' W 091°06'0 0.4
2014-Dec-14 02:33N 29°40' W 091°06'2 1.9
2014-Dec-14 01:33N 29°40' W 091°08'2 1.6
2014-Dec-14 00:33N 29°39' W 091°07'6 5.2
2014-Dec-13 23:29N 29°37' W 091°01'50 4.0
2014-Dec-13 11:10N 29°46' W 090°05'3 5.2
2014-Dec-13 10:33N 29°49' W 090°04'4 4.3
2014-Dec-13 09:33N 29°52' W 090°00'3 2.8
2014-Dec-13 08:24N 29°55' W 089°58'1 0.7
2014-Dec-13 07:26N 29°55' W 089°58'0 0.1
2014-Dec-13 06:18N 29°55' W 089°57'0 0.0
2014-Dec-13 05:12N 29°55' W 089°57'31 2.0
2014-Dec-12 13:32N 30°03' W 090°33'14 6.8
2014-Dec-12 11:30N 29°59' W 090°48'  

Dump ship's entire track history